Terminal Aerodrome Forecast
Issued by NWS New Orleans/Baton Rouge, LA

Home | Current Version | Previous Version | Text Only | Print | Product List | Glossary On
Versions: 1 2 3 4 5 6 7 8 9 10 11 12 13 14 15 16 17 18 19 20 21 22
000
FTUS44 KLIX 010500
TAFNEW
TAF
KNEW 010520Z 0106/0206 11010KT P6SM SCT040 BKN100
     FM011400 15010KT 3SM -SHRA OVC040
     FM011800 19011KT 3SM -SHRA OVC040
     FM012300 23010KT 3SM -SHRA OVC020
     FM020000 24010KT 3SM -SHRA OVC025
     FM020500 30019G27KT 3SM -SHRA OVC008=

USA.gov is the U.S. government's official web portal to all federal, state and local government web resources and services.